createdAt,value
2022-08-19T00:02:06.004Z,0
2022-08-19T00:07:10.183Z,0
2022-08-19T00:12:14.359Z,0
2022-08-19T00:17:18.483Z,0
2022-08-19T00:22:20.761Z,0
2022-08-19T00:27:26.842Z,0
2022-08-19T00:32:29.078Z,0
2022-08-19T00:37:33.219Z,0
2022-08-19T00:42:37.407Z,0
2022-08-19T00:47:41.557Z,0
2022-08-19T00:52:43.830Z,0
2022-08-19T00:57:47.986Z,0
2022-08-19T01:02:52.421Z,0
2022-08-19T01:07:56.284Z,0
2022-08-19T01:13:00.489Z,0
2022-08-19T01:18:04.622Z,0
2022-08-19T01:23:08.788Z,0
2022-08-19T01:28:12.954Z,0
2022-08-19T01:33:17.074Z,0
2022-08-19T01:38:21.281Z,0
2022-08-19T01:43:25.421Z,0
2022-08-19T01:48:29.591Z,0
2022-08-19T01:53:33.904Z,0
2022-08-19T01:58:37.888Z,0
2022-08-19T02:03:42.078Z,0
2022-08-19T02:08:46.243Z,0
2022-08-19T02:13:50.395Z,0
2022-08-19T02:18:54.566Z,0
2022-08-19T02:23:58.722Z,0
2022-08-19T02:29:02.832Z,0
2022-08-19T02:34:07.019Z,0
2022-08-19T02:39:11.203Z,0
2022-08-19T02:44:29.033Z,0
2022-08-19T02:49:19.499Z,0
2022-08-19T02:54:23.699Z,0
2022-08-19T02:59:27.812Z,0
2022-08-19T03:04:31.969Z,0
2022-08-19T03:09:36.146Z,0
2022-08-19T03:14:40.307Z,0
2022-08-19T03:19:44.440Z,0
2022-08-19T03:24:48.642Z,0
2022-08-19T03:29:52.785Z,0
2022-08-19T03:34:56.931Z,0
2022-08-19T03:40:01.240Z,0
2022-08-19T03:45:05.274Z,0
2022-08-19T03:50:09.436Z,0
2022-08-19T03:55:13.574Z,0
2022-08-19T04:00:17.839Z,1
2022-08-19T04:05:21.906Z,5
2022-08-19T04:10:26.045Z,12
2022-08-19T04:15:30.223Z,26
2022-08-19T04:20:34.414Z,50
2022-08-19T04:25:38.538Z,79
2022-08-19T04:30:42.702Z,123
2022-08-19T04:35:46.878Z,200
2022-08-19T04:40:51.039Z,300
2022-08-19T04:45:56.824Z,390
2022-08-19T04:50:59.347Z,452
2022-08-19T04:56:03.506Z,601
2022-08-19T05:01:07.746Z,669
2022-08-19T05:06:11.818Z,815
2022-08-19T05:11:15.996Z,960
2022-08-19T05:16:20.176Z,1393
2022-08-19T05:21:24.337Z,1560
2022-08-19T05:26:28.453Z,1731
2022-08-19T05:31:32.624Z,1926
2022-08-19T05:36:36.769Z,1875
2022-08-19T05:41:40.932Z,1948
2022-08-19T05:46:45.122Z,2169
2022-08-19T05:51:49.260Z,2334
2022-08-19T05:56:53.434Z,2451
2022-08-19T06:01:57.609Z,2631
2022-08-19T06:07:01.756Z,2756
2022-08-19T06:12:05.935Z,2934
2022-08-19T06:17:10.088Z,3548
2022-08-19T06:22:12.373Z,3285
2022-08-19T06:27:16.518Z,3578
2022-08-19T06:32:20.659Z,3520
2022-08-19T06:37:24.807Z,3495
2022-08-19T06:42:28.999Z,3554
2022-08-19T06:47:33.165Z,3568
2022-08-19T06:52:38.372Z,3530
2022-08-19T06:57:41.452Z,3410
2022-08-19T07:02:49.807Z,3392
2022-08-19T07:07:49.801Z,3478
2022-08-19T07:12:54.250Z,3660
2022-08-19T07:17:58.098Z,3741
2022-08-19T07:23:07.047Z,3760
2022-08-19T07:28:06.400Z,3821
2022-08-19T07:33:10.562Z,3951
2022-08-19T07:38:14.711Z,4175
2022-08-19T07:43:18.890Z,4351
2022-08-19T07:48:23.051Z,4439
2022-08-19T07:58:31.375Z,4608
2022-08-19T08:03:35.562Z,4655
2022-08-19T08:08:44.188Z,4458
2022-08-19T08:13:43.846Z,4370
2022-08-19T08:18:50.393Z,4310
2022-08-19T08:23:55.677Z,4192
2022-08-19T08:28:56.345Z,3920
2022-08-19T08:34:00.487Z,3847
2022-08-19T08:39:04.636Z,3894
2022-08-19T08:44:08.827Z,4075
2022-08-19T08:49:12.964Z,4200
2022-08-19T08:54:17.093Z,4596
2022-08-19T08:59:21.258Z,6685
2022-08-19T09:04:25.469Z,5045
2022-08-19T09:09:29.607Z,4626
2022-08-19T09:14:49.267Z,6017
2022-08-19T09:19:37.912Z,5348
2022-08-19T09:24:42.056Z,6506
2022-08-19T09:29:46.215Z,8053
2022-08-19T09:34:51.328Z,6799
2022-08-19T09:39:54.552Z,9495
2022-08-19T09:44:58.706Z,9414
2022-08-19T09:50:03.598Z,10947
2022-08-19T09:55:08.131Z,8590
2022-08-19T10:00:11.209Z,9528
2022-08-19T10:05:15.313Z,8547
2022-08-19T10:10:19.483Z,10036
2022-08-19T10:15:28.989Z,8840
2022-08-19T10:20:27.836Z,7408
2022-08-19T10:25:31.939Z,9407
2022-08-19T10:30:36.131Z,11328
2022-08-19T10:35:42.647Z,10042
2022-08-19T10:40:44.451Z,8308
2022-08-19T10:45:52.207Z,8606
2022-08-19T10:50:52.766Z,5224
2022-08-19T10:55:56.944Z,4925
2022-08-19T11:01:01.111Z,5937
2022-08-19T11:06:05.214Z,6052
2022-08-19T11:11:09.374Z,5706
2022-08-19T11:16:13.528Z,6936
2022-08-19T11:21:17.731Z,7693
2022-08-19T11:26:21.867Z,5480
2022-08-19T11:31:29.081Z,5760
2022-08-19T11:36:30.187Z,6980
2022-08-19T11:41:34.325Z,9214
2022-08-19T11:46:38.522Z,9589
2022-08-19T11:51:40.779Z,8923
2022-08-19T11:56:44.941Z,9779
2022-08-19T12:01:49.084Z,10525
2022-08-19T12:06:53.235Z,10636
2022-08-19T12:11:57.409Z,6765
2022-08-19T12:17:01.608Z,6403
2022-08-19T12:22:05.715Z,6346
2022-08-19T12:27:12.577Z,6120
2022-08-19T12:32:14.058Z,4861
2022-08-19T12:37:18.434Z,6307
2022-08-19T12:42:22.336Z,6042
2022-08-19T12:47:26.498Z,5494
2022-08-19T12:52:30.752Z,6114
2022-08-19T12:57:34.862Z,5753
2022-08-19T13:02:39.349Z,6473
2022-08-19T13:07:43.181Z,5104
2022-08-19T13:12:47.301Z,4304
2022-08-19T13:17:51.477Z,4368
2022-08-19T13:22:55.635Z,4573
2022-08-19T13:27:59.813Z,3591
2022-08-19T13:33:03.963Z,3835
2022-08-19T13:38:11.680Z,4150
2022-08-19T13:43:13.494Z,4360
2022-08-19T13:48:16.401Z,4715
2022-08-19T13:53:20.602Z,4700
2022-08-19T13:58:24.768Z,4245
2022-08-19T14:03:28.889Z,4235
2022-08-19T14:08:33.109Z,4265
2022-08-19T14:13:37.220Z,4246
2022-08-19T14:18:41.425Z,4091
2022-08-19T14:23:45.614Z,4781
2022-08-19T14:28:49.687Z,5644
2022-08-19T14:33:53.867Z,7088
2022-08-19T14:38:58.002Z,5359
2022-08-19T14:44:02.138Z,6194
2022-08-19T14:49:09.300Z,5695
2022-08-19T14:54:10.475Z,4746
2022-08-19T14:59:14.706Z,21616
2022-08-19T15:04:18.824Z,9455
2022-08-19T15:09:23.029Z,9354
2022-08-19T15:14:27.151Z,18865
2022-08-19T15:19:31.318Z,18553
2022-08-19T15:24:35.419Z,11537
2022-08-19T15:29:39.584Z,20062
2022-08-19T15:34:43.779Z,12804
2022-08-19T15:39:47.967Z,15691
2022-08-19T15:44:52.080Z,18956
2022-08-19T15:50:00.567Z,7563
2022-08-19T15:55:00.388Z,5316
2022-08-19T16:00:04.531Z,3619
2022-08-19T16:05:08.686Z,5768
2022-08-19T16:10:26.387Z,12496
2022-08-19T16:15:17.026Z,6965
2022-08-19T16:20:24.109Z,6775
2022-08-19T16:25:25.363Z,5682
2022-08-19T16:30:29.525Z,5343
2022-08-19T16:35:33.677Z,5230
2022-08-19T16:40:37.809Z,4424
2022-08-19T16:45:44.051Z,4871
2022-08-19T16:50:49.622Z,3174
2022-08-19T16:55:50.303Z,4119
2022-08-19T17:00:54.459Z,6355
2022-08-19T17:05:58.655Z,4363
2022-08-19T17:11:17.784Z,3975
2022-08-19T17:16:06.927Z,3902
2022-08-19T17:21:09.221Z,3240
2022-08-19T17:26:18.049Z,2931
2022-08-19T17:31:17.530Z,2103
2022-08-19T17:41:25.842Z,1906
2022-08-19T17:46:29.995Z,1663
2022-08-19T17:51:32.246Z,1318
2022-08-19T17:56:36.405Z,1316
2022-08-19T18:01:53.516Z,1605
2022-08-19T18:06:46.076Z,1290
2022-08-19T18:11:52.783Z,915
2022-08-19T18:16:53.040Z,900
2022-08-19T18:21:57.214Z,1277
2022-08-19T18:27:01.403Z,496
2022-08-19T18:32:05.519Z,353
2022-08-19T18:37:09.730Z,279
2022-08-19T18:42:13.813Z,211
2022-08-19T18:47:18.006Z,145
2022-08-19T18:52:22.173Z,83
2022-08-19T18:57:26.342Z,47
2022-08-19T19:02:30.477Z,26
2022-08-19T19:07:34.640Z,12
2022-08-19T19:12:38.821Z,5
2022-08-19T19:17:42.973Z,2
2022-08-19T19:22:47.113Z,0
2022-08-19T19:27:51.347Z,0
2022-08-19T19:32:55.441Z,0
2022-08-19T19:37:59.609Z,0
2022-08-19T19:43:03.779Z,0
2022-08-19T19:48:07.902Z,0
2022-08-19T19:53:12.072Z,0
2022-08-19T19:58:16.251Z,0
2022-08-19T20:03:20.409Z,0
2022-08-19T20:08:24.571Z,0
2022-08-19T20:13:28.738Z,0
2022-08-19T20:18:32.920Z,0
2022-08-19T20:23:37.049Z,0
2022-08-19T20:28:47.428Z,0
2022-08-19T20:33:45.327Z,0
2022-08-19T20:38:49.530Z,0
2022-08-19T20:43:53.661Z,0
2022-08-19T20:48:57.858Z,0
2022-08-19T20:54:01.982Z,0
2022-08-19T20:59:06.140Z,0
2022-08-19T21:04:10.302Z,0
2022-08-19T21:14:18.622Z,0
2022-08-19T21:19:24.120Z,0
2022-08-19T21:24:31.450Z,0
2022-08-19T21:29:31.083Z,0
2022-08-19T21:34:35.306Z,0
2022-08-19T21:39:39.452Z,0
2022-08-19T21:44:45.538Z,0
2022-08-19T21:49:47.699Z,0
2022-08-19T21:54:51.876Z,0
2022-08-19T21:59:56.032Z,0
2022-08-19T22:05:00.202Z,0
2022-08-19T22:10:04.374Z,0
2022-08-19T22:15:13.842Z,0
2022-08-19T22:20:12.760Z,0
2022-08-19T22:30:21.125Z,0
2022-08-19T22:35:25.202Z,0
2022-08-19T22:40:29.318Z,0
2022-08-19T22:45:33.490Z,0
2022-08-19T22:50:37.615Z,0
2022-08-19T22:55:41.803Z,0
2022-08-19T23:00:46.050Z,0
2022-08-19T23:05:50.113Z,0
2022-08-19T23:10:54.293Z,0
2022-08-19T23:15:58.474Z,0
2022-08-19T23:21:00.746Z,0
2022-08-19T23:31:08.984Z,0
2022-08-19T23:36:13.148Z,0
2022-08-19T23:41:17.369Z,0
2022-08-19T23:46:27.982Z,0
2022-08-19T23:51:25.650Z,0
2022-08-19T23:56:29.818Z,0
